Time;durP1;ratioP1;P1;durP2;ratioP2;P2;SDS_P1;SDS_P2;PMS_P1;PMS_P2;Temp;Humidity;BMP_temperature;BMP_pressure;BME280_temperature;BME280_humidity;BME280_pressure;Samples;Min_cycle;Max_cycle;Signal;HPM_P1;HPM_P2
2021/09/04 00:01:20;;;;;;;3.77;3.47;;;18.40;32.80;;;;;;10519477;28;20239;-77
2021/09/04 00:06:24;;;;;;;6.47;5.33;;;18.30;33.10;;;;;;10522002;28;20226;-77
2021/09/04 00:11:27;;;;;;;5.87;4.67;;;18.30;33.00;;;;;;10526144;28;20233;-77
2021/09/04 00:16:31;;;;;;;6.83;5.53;;;18.20;33.00;;;;;;10527466;28;20224;-77
2021/09/04 00:21:35;;;;;;;7.47;6.20;;;18.20;33.20;;;;;;10522460;28;20227;-76
2021/09/04 00:26:38;;;;;;;7.13;5.93;;;18.10;32.70;;;;;;10524769;28;20778;-77
2021/09/04 00:31:42;;;;;;;8.57;6.20;;;18.00;32.90;;;;;;10521376;28;20231;-77
2021/09/04 00:36:46;;;;;;;8.87;5.87;;;17.90;33.30;;;;;;10523893;28;20695;-77
2021/09/04 00:41:49;;;;;;;6.43;5.40;;;17.70;33.10;;;;;;10524470;28;20216;-77
2021/09/04 00:47:01;;;;;;;5.00;4.50;;;17.70;33.30;;;;;;10522709;28;21291;-77
2021/09/04 00:52:06;;;;;;;4.47;3.47;;;17.60;34.40;;;;;;10518357;28;20226;-77
2021/09/04 00:57:10;;;;;;;3.90;3.60;;;17.60;33.50;;;;;;10521057;28;20799;-77
2021/09/04 01:02:14;;;;;;;3.70;3.40;;;17.60;33.40;;;;;;10523590;28;20228;-77
2021/09/04 01:07:18;;;;;;;3.70;3.40;;;17.60;33.90;;;;;;10521497;28;20273;-77
2021/09/04 01:12:21;;;;;;;4.13;3.83;;;17.50;33.40;;;;;;10529869;28;20220;-77
2021/09/04 01:17:26;;;;;;;3.50;3.20;;;17.50;33.50;;;;;;10534265;28;20601;-77
2021/09/04 01:22:32;;;;;;;3.43;3.17;;;17.40;33.90;;;;;;10534953;28;20231;-77
2021/09/04 01:27:39;;;;;;;4.30;3.77;;;17.40;34.20;;;;;;10527925;28;20223;-77
2021/09/04 01:32:43;;;;;;;4.60;3.00;;;17.30;34.10;;;;;;10532283;28;20301;-77
2021/09/04 01:37:46;;;;;;;4.20;3.80;;;17.20;33.80;;;;;;10530211;28;20227;-77
2021/09/04 01:42:51;;;;;;;4.60;3.53;;;17.20;34.00;;;;;;10528122;28;20231;-77
2021/09/04 01:47:54;;;;;;;3.50;3.20;;;17.10;34.00;;;;;;10528358;28;20216;-77
2021/09/04 01:52:57;;;;;;;4.03;3.73;;;17.10;34.00;;;;;;10529694;28;20227;-77
2021/09/04 01:58:02;;;;;;;4.03;3.37;;;17.00;33.90;;;;;;10530380;28;20231;-77
2021/09/04 02:03:05;;;;;;;4.17;3.27;;;16.90;33.80;;;;;;10528653;28;20224;-77
2021/09/04 02:08:08;;;;;;;4.63;3.47;;;16.70;33.60;;;;;;10522798;28;20836;-77
2021/09/04 02:13:13;;;;;;;3.37;3.07;;;16.60;33.60;;;;;;10524947;28;20231;-78
2021/09/04 02:18:16;;;;;;;4.07;3.23;;;16.60;34.30;;;;;;10529875;28;20712;-77
2021/09/04 02:23:19;;;;;;;3.43;3.13;;;16.50;33.90;;;;;;10524115;28;20232;-77
2021/09/04 02:28:24;;;;;;;3.30;3.00;;;16.50;34.00;;;;;;10527849;28;20235;-77
2021/09/04 02:33:27;;;;;;;2.87;2.67;;;16.50;34.30;;;;;;10528060;28;20254;-77
2021/09/04 02:38:30;;;;;;;3.03;2.80;;;16.50;34.00;;;;;;10528126;28;20590;-77
2021/09/04 02:43:34;;;;;;;3.00;2.80;;;16.50;34.00;;;;;;10528948;28;20603;-77
2021/09/04 02:48:38;;;;;;;4.13;3.20;;;16.40;34.30;;;;;;10527393;28;20329;-77
2021/09/04 02:53:41;;;;;;;3.77;3.47;;;16.40;34.00;;;;;;10528806;28;20231;-77
2021/09/04 02:58:45;;;;;;;3.63;3.33;;;16.40;34.10;;;;;;10527780;28;20251;-77
2021/09/04 03:03:48;;;;;;;3.90;3.50;;;16.40;34.50;;;;;;10524453;28;20221;-77
2021/09/04 03:08:54;;;;;;;4.23;3.67;;;16.40;34.20;;;;;;10527782;28;20311;-77
2021/09/04 03:13:58;;;;;;;3.60;3.20;;;16.30;34.00;;;;;;10524172;28;20251;-77
2021/09/04 03:19:01;;;;;;;3.63;3.33;;;16.20;34.40;;;;;;10525069;28;20973;-77
2021/09/04 03:24:05;;;;;;;4.37;3.30;;;16.20;34.20;;;;;;10523817;28;20761;-77
2021/09/04 03:29:09;;;;;;;4.00;3.70;;;16.20;34.30;;;;;;10525452;28;20219;-76
2021/09/04 03:34:12;;;;;;;3.87;3.57;;;16.10;34.70;;;;;;10526701;28;20241;-77
2021/09/04 03:39:15;;;;;;;3.80;3.50;;;16.10;34.40;;;;;;10523758;28;20223;-77
2021/09/04 03:44:20;;;;;;;3.17;2.90;;;16.10;34.50;;;;;;10522722;28;20231;-77
2021/09/04 03:49:23;;;;;;;2.83;2.63;;;16.00;34.70;;;;;;10532390;28;20235;-77
2021/09/04 03:54:27;;;;;;;3.40;3.10;;;16.00;34.50;;;;;;10523434;28;20228;-76
2021/09/04 03:59:31;;;;;;;3.63;3.33;;;15.90;34.40;;;;;;10522749;28;20223;-77
2021/09/04 04:04:34;;;;;;;3.50;3.20;;;15.90;34.80;;;;;;10526573;28;20224;-77
2021/09/04 04:09:37;;;;;;;3.70;3.27;;;15.90;34.50;;;;;;10522801;28;20230;-77
2021/09/04 04:14:42;;;;;;;3.73;3.43;;;15.90;34.60;;;;;;10524996;28;20227;-76
2021/09/04 04:19:45;;;;;;;4.70;3.80;;;15.80;34.80;;;;;;10524576;28;20227;-77
2021/09/04 04:24:48;;;;;;;3.67;3.07;;;15.80;34.50;;;;;;10523862;28;20252;-77
2021/09/04 04:29:53;;;;;;;3.37;2.80;;;15.70;34.50;;;;;;10530245;22;20219;-75
2021/09/04 04:34:56;;;;;;;3.43;3.13;;;15.70;34.90;;;;;;10515390;28;20251;-75
2021/09/04 04:39:59;;;;;;;3.27;2.93;;;15.60;34.70;;;;;;10513133;28;20231;-75
2021/09/04 04:45:04;;;;;;;3.50;3.07;;;15.60;34.80;;;;;;10516420;28;20868;-75
2021/09/04 04:50:10;;;;;;;3.23;3.03;;;15.60;35.10;;;;;;10522890;28;20234;-75
2021/09/04 04:55:13;;;;;;;4.00;3.60;;;15.50;34.90;;;;;;10519828;28;20220;-75
2021/09/04 05:00:18;;;;;;;5.03;3.63;;;15.50;34.80;;;;;;10517963;28;20235;-76
2021/09/04 05:05:22;;;;;;;4.23;3.57;;;15.50;35.30;;;;;;10522685;28;20286;-75
2021/09/04 05:10:25;;;;;;;3.63;3.33;;;15.40;34.60;;;;;;10523152;28;20228;-74
2021/09/04 05:15:29;;;;;;;4.33;3.17;;;15.40;35.10;;;;;;10521778;28;20220;-74
2021/09/04 05:20:33;;;;;;;3.00;2.70;;;15.40;35.40;;;;;;10523742;28;20448;-74
2021/09/04 05:25:36;;;;;;;4.37;3.20;;;15.30;35.20;;;;;;10521988;28;20619;-75
2021/09/04 05:30:40;;;;;;;4.07;3.70;;;15.30;35.40;;;;;;10519970;28;20948;-75
2021/09/04 05:35:44;;;;;;;4.77;3.60;;;15.30;36.00;;;;;;10522714;28;20606;-75
2021/09/04 05:40:47;;;;;;;4.83;3.73;;;15.30;35.70;;;;;;10521637;28;20223;-75
2021/09/04 05:45:51;;;;;;;4.27;3.90;;;15.30;36.00;;;;;;10522223;28;20223;-75
2021/09/04 05:50:55;;;;;;;4.63;4.23;;;15.20;36.50;;;;;;10517620;28;20235;-74
2021/09/04 05:55:58;;;;;;;5.17;4.63;;;15.20;36.30;;;;;;10518936;28;20231;-75
2021/09/04 06:01:02;;;;;;;6.23;5.07;;;15.30;36.60;;;;;;10521020;28;20250;-74
2021/09/04 06:06:06;;;;;;;4.97;4.50;;;15.30;37.30;;;;;;10517938;28;20594;-75
2021/09/04 06:11:09;;;;;;;5.60;5.07;;;15.40;36.90;;;;;;10521064;28;20223;-75
2021/09/04 06:16:13;;;;;;;4.57;4.17;;;15.40;37.20;;;;;;10516421;28;20220;-75
2021/09/04 06:21:17;;;;;;;5.60;4.60;;;15.50;37.80;;;;;;10499445;28;22244;-74
2021/09/04 06:26:20;;;;;;;6.37;4.97;;;15.50;37.40;;;;;;10509524;28;20228;-72
2021/09/04 06:31:24;;;;;;;5.60;5.00;;;15.50;37.50;;;;;;10511065;28;20225;-78
2021/09/04 06:36:28;;;;;;;8.40;7.60;;;15.60;38.20;;;;;;10518733;28;20237;-76
2021/09/04 06:41:31;;;;;;;9.73;8.83;;;15.70;38.00;;;;;;10522592;28;20238;-76
2021/09/04 06:46:36;;;;;;;11.83;10.27;;;15.80;38.20;;;;;;10515292;28;20733;-77
2021/09/04 06:51:39;;;;;;;11.07;9.97;;;15.90;39.10;;;;;;10514870;28;20221;-73
2021/09/04 06:56:42;;;;;;;8.77;7.97;;;15.90;38.60;;;;;;10517084;28;20228;-72
2021/09/04 07:01:49;;;;;;;9.97;8.60;;;16.00;39.00;;;;;;10512797;28;20244;-74
2021/09/04 07:06:53;;;;;;;8.60;7.80;;;16.10;40.00;;;;;;10502745;28;20302;-75
2021/09/04 07:11:56;;;;;;;8.70;7.90;;;16.20;39.30;;;;;;10507118;28;20232;-74
2021/09/04 07:17:00;;;;;;;7.30;6.60;;;16.30;39.40;;;;;;10516060;28;20216;-75
2021/09/04 07:22:04;;;;;;;7.50;6.90;;;16.40;40.90;;;;;;10515619;28;20322;-76
2021/09/04 07:27:07;;;;;;;6.90;6.30;;;16.50;40.50;;;;;;10514013;28;20322;-75
2021/09/04 07:32:12;;;;;;;7.57;6.77;;;16.60;40.00;;;;;;10515316;28;20233;-76
2021/09/04 07:37:15;;;;;;;6.73;6.13;;;16.80;40.90;;;;;;10511267;28;20822;-76
2021/09/04 07:42:18;;;;;;;7.50;6.80;;;17.00;40.50;;;;;;10514215;28;20472;-76
2021/09/04 07:47:23;;;;;;;8.47;7.03;;;17.10;40.70;;;;;;10513288;28;20234;-77
2021/09/04 07:52:26;;;;;;;7.17;6.47;;;17.20;41.50;;;;;;10505933;28;20235;-73
2021/09/04 07:57:29;;;;;;;6.87;6.27;;;17.50;41.30;;;;;;10505406;28;20247;-73
2021/09/04 08:02:34;;;;;;;7.00;6.40;;;17.70;41.50;;;;;;10509784;28;20249;-74
2021/09/04 08:07:38;;;;;;;6.43;5.80;;;18.00;42.40;;;;;;10515520;28;20223;-74
2021/09/04 08:12:41;;;;;;;6.80;6.20;;;18.20;41.80;;;;;;10515138;28;20228;-73
2021/09/04 08:17:46;;;;;;;6.27;5.77;;;18.60;42.00;;;;;;10513724;28;20216;-71
2021/09/04 08:22:49;;;;;;;7.00;6.40;;;18.80;42.40;;;;;;10506664;28;20813;-76
2021/09/04 08:27:52;;;;;;;6.73;6.13;;;19.10;41.70;;;;;;10506282;28;20215;-77
2021/09/04 08:32:57;;;;;;;6.13;5.63;;;19.50;41.90;;;;;;10502478;22;20212;-72
2021/09/04 08:38:06;;;;;;;6.30;5.80;;;19.80;42.00;;;;;;10475455;28;20220;-72
2021/09/04 08:43:09;;;;;;;6.77;6.07;;;20.20;41.30;;;;;;10477765;28;20940;-74
2021/09/04 08:48:15;;;;;;;9.30;7.97;;;20.50;41.30;;;;;;10479197;28;20250;-76
2021/09/04 08:53:19;;;;;;;7.03;6.43;;;20.90;41.50;;;;;;10476516;28;20232;-72
2021/09/04 08:58:22;;;;;;;8.47;7.67;;;21.20;40.60;;;;;;10475597;28;20232;-72
2021/09/04 09:03:29;;;;;;;8.40;7.60;;;21.50;40.30;;;;;;10479113;28;20761;-73
2021/09/04 09:08:32;;;;;;;7.97;7.27;;;21.80;40.00;;;;;;10477150;28;20222;-72
2021/09/04 09:13:46;;;;;;;7.30;6.60;;;22.10;40.10;;;;;;10475187;28;20228;-72
2021/09/04 09:19:01;;;;;;;7.40;6.70;;;22.40;40.00;;;;;;10477883;28;21064;-73
2021/09/04 09:24:12;;;;;;;7.47;6.83;;;22.70;39.50;;;;;;10475844;28;20224;-72
2021/09/04 09:29:20;;;;;;;8.10;7.37;;;22.90;39.10;;;;;;10477627;28;20225;-71
2021/09/04 09:34:24;;;;;;;7.97;6.80;;;23.20;39.30;;;;;;10481331;28;20232;-72
2021/09/04 09:39:29;;;;;;;6.60;6.00;;;23.40;39.30;;;;;;10484945;28;20224;-71
2021/09/04 09:44:34;;;;;;;7.23;6.63;;;23.60;38.90;;;;;;10483228;28;20231;-72
2021/09/04 09:49:40;;;;;;;5.83;5.33;;;23.80;38.10;;;;;;10483556;28;20239;-71
2021/09/04 09:54:45;;;;;;;6.20;5.73;;;24.10;37.30;;;;;;10483282;28;20232;-71
2021/09/04 09:59:50;;;;;;;5.63;5.13;;;24.30;37.20;;;;;;10481531;28;21030;-71
2021/09/04 10:04:55;;;;;;;6.60;5.97;;;24.50;36.20;;;;;;10482009;28;20315;-71
2021/09/04 10:09:58;;;;;;;5.73;5.23;;;24.70;35.80;;;;;;10483621;28;20239;-71
2021/09/04 10:15:01;;;;;;;6.03;5.53;;;24.90;36.00;;;;;;10479315;28;20224;-71
2021/09/04 10:20:07;;;;;;;5.13;4.73;;;25.20;35.90;;;;;;10479525;28;20227;-71
2021/09/04 10:25:15;;;;;;;5.53;5.03;;;25.40;34.80;;;;;;10482356;28;20231;-72
2021/09/04 10:30:24;;;;;;;5.10;4.70;;;25.70;34.00;;;;;;10478541;28;20986;-72
2021/09/04 10:35:47;;;;;;;5.37;4.80;;;25.90;33.10;;;;;;10481208;28;20255;-71
2021/09/04 10:40:52;;;;;;;5.10;4.70;;;26.00;33.20;;;;;;10479385;28;20307;-72
2021/09/04 10:45:56;;;;;;;5.90;5.40;;;26.20;33.10;;;;;;10475664;28;20224;-71
2021/09/04 10:51:08;;;;;;;5.07;4.67;;;26.30;32.90;;;;;;10481908;28;20246;-72
2021/09/04 10:56:19;;;;;;;4.80;4.40;;;26.40;31.10;;;;;;10477661;28;20680;-71
2021/09/04 11:01:27;;;;;;;5.10;4.70;;;26.60;31.30;;;;;;10480293;28;20598;-72
2021/09/04 11:06:32;;;;;;;6.70;4.80;;;26.70;30.50;;;;;;10479821;28;20220;-71
2021/09/04 11:11:36;;;;;;;5.47;4.63;;;26.80;31.00;;;;;;10478228;28;20231;-71
2021/09/04 11:16:48;;;;;;;4.40;4.00;;;26.90;30.90;;;;;;10478426;28;20238;-72
2021/09/04 11:21:59;;;;;;;4.20;3.90;;;27.00;29.70;;;;;;10479477;28;20726;-71
2021/09/04 11:27:05;;;;;;;4.83;4.20;;;27.00;29.80;;;;;;10481063;28;20220;-73
2021/09/04 11:32:10;;;;;;;4.00;3.70;;;27.00;29.70;;;;;;10480680;28;20216;-73
2021/09/04 11:37:23;;;;;;;3.83;3.53;;;27.00;29.70;;;;;;10478834;28;20227;-72
2021/09/04 11:42:29;;;;;;;4.10;3.80;;;27.00;28.40;;;;;;10477387;28;20615;-73
2021/09/04 11:47:34;;;;;;;4.03;3.73;;;27.00;29.20;;;;;;10478543;28;20216;-75
2021/09/04 11:52:40;;;;;;;4.00;3.63;;;27.10;29.40;;;;;;10482521;28;20229;-73
2021/09/04 11:57:45;;;;;;;4.70;4.30;;;27.10;28.30;;;;;;10477071;28;20228;-73
2021/09/04 12:02:50;;;;;;;4.27;3.90;;;27.10;28.70;;;;;;10478668;28;20224;-71
2021/09/04 12:07:56;;;;;;;4.10;3.80;;;27.10;28.10;;;;;;10478433;28;20252;-74
2021/09/04 12:13:01;;;;;;;4.10;3.80;;;27.10;28.10;;;;;;10479421;28;20239;-73
2021/09/04 12:18:06;;;;;;;4.00;3.60;;;27.10;28.20;;;;;;10475738;28;20247;-73
2021/09/04 12:23:19;;;;;;;3.77;3.47;;;27.10;28.20;;;;;;10479370;28;20228;-73
2021/09/04 12:28:26;;;;;;;3.77;3.57;;;27.10;27.60;;;;;;10478001;28;20224;-73
2021/09/04 12:33:30;;;;;;;3.70;3.50;;;27.10;27.50;;;;;;10477607;28;20228;-73
2021/09/04 12:38:42;;;;;;;3.70;3.47;;;27.10;27.90;;;;;;10479807;28;20227;-73
2021/09/04 12:43:57;;;;;;;4.43;4.03;;;27.20;26.90;;;;;;10478162;28;20227;-73
2021/09/04 12:49:15;;;;;;;3.70;3.50;;;27.20;27.20;;;;;;10476661;28;20246;-73
2021/09/04 12:54:29;;;;;;;4.30;4.00;;;27.20;27.60;;;;;;10479058;28;20739;-73
2021/09/04 12:59:42;;;;;;;4.50;3.77;;;27.30;27.00;;;;;;10473852;28;20227;-73
2021/09/04 13:04:46;;;;;;;3.77;3.47;;;27.30;26.60;;;;;;10477504;28;20232;-73
2021/09/04 13:09:50;;;;;;;4.17;3.87;;;27.30;27.80;;;;;;10485433;28;20228;-73
2021/09/04 13:14:53;;;;;;;3.27;3.03;;;27.30;27.40;;;;;;10483928;28;20238;-73
2021/09/04 13:19:56;;;;;;;4.20;3.90;;;27.30;27.30;;;;;;10483942;28;20220;-73
2021/09/04 13:25:01;;;;;;;4.10;3.53;;;27.40;27.20;;;;;;10484304;28;20701;-73
2021/09/04 13:30:06;;;;;;;4.27;3.93;;;27.40;26.50;;;;;;10485080;28;20228;-73
2021/09/04 13:35:10;;;;;;;3.80;3.50;;;27.40;26.50;;;;;;10482804;28;20307;-73
2021/09/04 13:40:15;;;;;;;3.70;3.40;;;27.40;26.50;;;;;;10485395;28;20228;-73
2021/09/04 13:45:19;;;;;;;4.10;3.80;;;27.40;26.20;;;;;;10482041;28;20233;-74
2021/09/04 13:50:22;;;;;;;3.87;3.57;;;27.40;26.60;;;;;;10484068;28;20239;-73
2021/09/04 13:55:27;;;;;;;4.10;3.73;;;27.40;26.50;;;;;;10483817;28;20224;-73
2021/09/04 14:00:30;;;;;;;3.87;3.57;;;27.40;26.20;;;;;;10482495;28;20732;-73
2021/09/04 14:05:33;;;;;;;3.60;3.40;;;27.50;26.40;;;;;;10483903;28;20603;-71
2021/09/04 14:10:38;;;;;;;3.90;3.60;;;27.50;26.10;;;;;;10482948;28;20224;-71
2021/09/04 14:15:41;;;;;;;3.93;3.63;;;27.50;25.60;;;;;;10481474;28;20216;-73
2021/09/04 14:20:44;;;;;;;4.17;3.77;;;27.50;25.80;;;;;;10482395;28;20226;-73
2021/09/04 14:25:49;;;;;;;3.90;3.60;;;27.50;26.00;;;;;;10482112;28;20220;-73
2021/09/04 14:30:52;;;;;;;3.87;3.57;;;27.50;25.40;;;;;;10480249;28;20220;-73
2021/09/04 14:35:56;;;;;;;4.20;3.80;;;27.50;25.80;;;;;;10482054;28;20730;-73
2021/09/04 14:41:00;;;;;;;4.00;3.70;;;27.50;25.70;;;;;;10480601;28;20743;-73
2021/09/04 14:46:04;;;;;;;4.00;3.70;;;27.50;25.30;;;;;;10481535;28;20240;-73
2021/09/04 14:51:07;;;;;;;4.30;4.00;;;27.50;25.60;;;;;;10480371;28;20299;-74
2021/09/04 14:56:11;;;;;;;4.03;3.73;;;27.50;25.80;;;;;;10478278;28;20239;-74
2021/09/04 15:01:14;;;;;;;4.43;4.03;;;27.60;25.20;;;;;;10480234;28;20613;-73
2021/09/04 15:06:18;;;;;;;4.00;3.70;;;27.60;25.40;;;;;;10479951;28;20596;-73
2021/09/04 15:11:23;;;;;;;4.07;3.73;;;27.60;25.60;;;;;;10480783;28;20604;-73
2021/09/04 15:16:26;;;;;;;3.90;3.50;;;27.60;25.00;;;;;;10477841;28;20696;-73
2021/09/04 15:21:30;;;;;;;3.77;3.47;;;27.60;25.30;;;;;;10480799;28;20224;-73
2021/09/04 15:26:34;;;;;;;4.07;3.77;;;27.60;25.20;;;;;;10480619;28;20220;-73
2021/09/04 15:31:37;;;;;;;4.00;3.70;;;27.60;24.70;;;;;;10478975;28;20847;-73
2021/09/04 15:36:41;;;;;;;4.00;3.70;;;27.60;25.00;;;;;;10480403;28;20572;-73
2021/09/04 15:41:45;;;;;;;5.00;4.60;;;27.70;24.60;;;;;;10477662;28;20224;-74
2021/09/04 15:46:48;;;;;;;7.17;6.57;;;27.60;24.70;;;;;;10480461;28;20222;-73
2021/09/04 15:51:52;;;;;;;5.67;5.17;;;27.60;25.00;;;;;;10475330;28;20755;-74
2021/09/04 15:57:13;;;;;;;4.57;4.17;;;27.70;25.10;;;;;;10475628;28;20318;-73
2021/09/04 16:02:17;;;;;;;4.00;3.70;;;27.60;24.80;;;;;;10473723;28;20240;-74
2021/09/04 16:07:20;;;;;;;3.93;3.63;;;27.70;24.90;;;;;;10488715;28;20222;-77
2021/09/04 16:12:46;;;;;;;3.87;3.57;;;27.60;25.00;;;;;;10485738;28;20830;-76
2021/09/04 16:17:49;;;;;;;4.03;3.73;;;27.60;24.70;;;;;;10493994;28;20244;-81
2021/09/04 16:22:53;;;;;;;3.77;3.47;;;27.60;25.00;;;;;;10480591;28;20244;-78
2021/09/04 16:27:57;;;;;;;3.80;3.50;;;27.60;25.80;;;;;;10490231;28;20230;-78
2021/09/04 16:33:00;;;;;;;4.17;3.47;;;27.60;25.00;;;;;;10483123;28;20712;-80
2021/09/04 16:38:04;;;;;;;3.43;3.17;;;27.50;25.20;;;;;;10487259;28;20599;-78
2021/09/04 16:43:09;;;;;;;3.90;3.60;;;27.50;25.10;;;;;;10494797;28;20306;-79
2021/09/04 16:48:12;;;;;;;4.10;3.80;;;27.60;25.40;;;;;;10484047;28;20829;-73
2021/09/04 16:53:15;;;;;;;4.20;3.80;;;27.50;25.60;;;;;;10485968;28;20590;-74
2021/09/04 16:58:19;;;;;;;4.50;4.00;;;27.50;25.50;;;;;;10482983;28;20338;-74
2021/09/04 17:03:23;;;;;;;4.10;3.80;;;27.40;26.10;;;;;;10485359;28;20288;-75
2021/09/04 17:08:27;;;;;;;5.03;4.63;;;27.30;25.90;;;;;;10487366;28;20234;-81
2021/09/04 17:13:31;;;;;;;4.40;4.00;;;27.10;25.80;;;;;;10491537;28;20294;-81
2021/09/04 17:18:37;;;;;;;4.00;3.70;;;27.00;26.10;;;;;;10492730;28;20232;-78
2021/09/04 17:23:43;;;;;;;4.00;3.70;;;26.90;26.30;;;;;;10479265;28;20271;-79
2021/09/04 17:28:48;;;;;;;7.13;3.80;;;26.80;26.50;;;;;;10496494;28;20223;-78
2021/09/04 17:33:51;;;;;;;4.23;3.93;;;26.60;26.90;;;;;;10484166;28;20228;-74
2021/09/04 17:38:54;;;;;;;4.20;3.83;;;26.40;26.70;;;;;;10484856;28;20227;-74
2021/09/04 17:43:59;;;;;;;4.73;4.30;;;26.30;26.90;;;;;;10481577;28;20315;-74
2021/09/04 17:49:02;;;;;;;4.23;3.93;;;26.20;27.40;;;;;;10487400;28;20627;-74
2021/09/04 17:54:06;;;;;;;5.13;4.70;;;26.00;27.50;;;;;;10483639;28;20318;-75
2021/09/04 17:59:10;;;;;;;4.80;4.40;;;25.90;27.80;;;;;;10480490;28;20239;-75
2021/09/04 18:04:13;;;;;;;4.43;4.03;;;25.70;27.90;;;;;;10480650;28;20238;-75
2021/09/04 18:09:17;;;;;;;4.43;4.03;;;25.70;28.10;;;;;;10481128;28;20311;-74
2021/09/04 18:14:22;;;;;;;6.27;4.77;;;25.50;28.00;;;;;;10479988;28;20232;-75
2021/09/04 18:19:25;;;;;;;6.80;5.50;;;25.40;28.30;;;;;;10481073;28;20224;-75
2021/09/04 18:24:29;;;;;;;5.50;5.00;;;25.20;28.20;;;;;;10483544;28;20299;-75
2021/09/04 18:29:34;;;;;;;4.83;4.33;;;25.00;28.50;;;;;;10481408;28;20715;-75
2021/09/04 18:34:37;;;;;;;7.00;6.40;;;24.90;28.60;;;;;;10485229;28;20699;-80
2021/09/04 18:39:40;;;;;;;6.90;5.13;;;24.80;28.60;;;;;;10494334;28;20238;-79
2021/09/04 18:44:45;;;;;;;5.00;4.60;;;24.70;28.50;;;;;;10476534;28;20216;-73
2021/09/04 18:49:49;;;;;;;5.03;4.53;;;24.50;28.40;;;;;;10485987;28;20250;-79
2021/09/04 18:54:52;;;;;;;5.00;4.60;;;24.40;28.30;;;;;;10483178;28;20256;-73
2021/09/04 18:59:57;;;;;;;4.63;4.23;;;24.30;28.40;;;;;;10476351;28;20238;-73
2021/09/04 19:05:00;;;;;;;5.40;4.90;;;24.10;28.80;;;;;;10478061;28;20902;-73
2021/09/04 19:10:04;;;;;;;5.40;4.90;;;24.00;28.60;;;;;;10476376;28;20216;-73
2021/09/04 19:15:12;;;;;;;5.63;5.13;;;23.80;28.80;;;;;;10469033;28;20324;-73
2021/09/04 19:20:16;;;;;;;6.10;5.53;;;23.70;29.20;;;;;;10478554;28;20227;-72
2021/09/04 19:25:19;;;;;;;8.53;7.73;;;23.60;29.00;;;;;;10479301;28;20228;-72
2021/09/04 19:30:25;;;;;;;8.80;7.53;;;23.50;29.00;;;;;;10474165;28;20262;-78
2021/09/04 19:35:30;;;;;;;7.10;6.50;;;23.30;29.30;;;;;;10487604;28;20228;-78
2021/09/04 19:40:37;;;;;;;7.30;6.47;;;23.20;29.20;;;;;;10482003;28;20239;-78
2021/09/04 19:45:42;;;;;;;6.60;6.00;;;23.00;29.20;;;;;;10485693;28;20219;-78
2021/09/04 19:50:46;;;;;;;6.73;5.63;;;22.80;29.60;;;;;;10489549;28;20228;-78
2021/09/04 19:55:49;;;;;;;5.00;4.60;;;22.50;29.60;;;;;;10481506;28;20235;-78
2021/09/04 20:00:54;;;;;;;5.00;4.60;;;22.30;29.60;;;;;;10490041;28;20227;-79
2021/09/04 20:05:58;;;;;;;5.70;5.17;;;22.20;30.10;;;;;;10492043;28;20239;-78
2021/09/04 20:11:01;;;;;;;7.77;5.80;;;22.10;30.00;;;;;;10483184;28;20892;-78
2021/09/04 20:16:06;;;;;;;7.30;6.23;;;22.00;30.20;;;;;;10488265;28;20219;-79
2021/09/04 20:21:14;;;;;;;6.10;5.60;;;21.90;30.70;;;;;;10482273;28;20232;-79
2021/09/04 20:26:17;;;;;;;7.00;5.80;;;21.90;30.20;;;;;;10482629;28;20826;-77
2021/09/04 20:31:22;;;;;;;5.70;5.20;;;21.80;30.40;;;;;;10477380;28;20224;-78
2021/09/04 20:36:33;;;;;;;6.23;5.67;;;21.70;30.70;;;;;;10485406;28;21024;-79
2021/09/04 20:41:37;;;;;;;5.07;4.47;;;21.70;30.60;;;;;;10481839;28;20226;-79
2021/09/04 20:46:42;;;;;;;5.83;5.33;;;21.60;30.60;;;;;;10483211;28;20219;-78
2021/09/04 20:51:48;;;;;;;7.53;6.33;;;21.50;31.00;;;;;;10475408;28;20785;-73
2021/09/04 20:56:51;;;;;;;5.80;5.30;;;21.40;30.80;;;;;;10475464;28;20797;-79
2021/09/04 21:01:58;;;;;;;7.23;5.70;;;21.20;30.60;;;;;;10484431;28;20283;-79
2021/09/04 21:07:02;;;;;;;5.53;5.00;;;21.10;31.30;;;;;;10482079;28;20685;-74
2021/09/04 21:12:06;;;;;;;5.80;5.30;;;21.00;31.10;;;;;;10477518;28;20648;-76
2021/09/04 21:17:12;;;;;;;6.07;5.50;;;20.90;31.30;;;;;;10479251;28;20230;-78
2021/09/04 21:22:17;;;;;;;5.17;4.67;;;20.80;31.70;;;;;;10486528;28;20315;-79
2021/09/04 21:27:20;;;;;;;5.50;5.00;;;20.80;31.70;;;;;;10482303;28;20232;-78
2021/09/04 21:32:25;;;;;;;8.10;4.93;;;20.70;31.30;;;;;;10485023;28;20235;-79
2021/09/04 21:37:28;;;;;;;6.43;4.73;;;20.70;32.00;;;;;;10492187;28;20235;-78
2021/09/04 21:42:32;;;;;;;4.93;4.53;;;20.60;31.60;;;;;;10489231;28;20242;-79
2021/09/04 21:47:37;;;;;;;4.80;4.30;;;20.50;31.50;;;;;;10492498;28;20223;-78
2021/09/04 21:52:40;;;;;;;5.67;5.10;;;20.40;32.00;;;;;;10490674;28;20226;-79
2021/09/04 21:57:43;;;;;;;5.97;5.47;;;20.40;31.70;;;;;;10492882;28;20230;-78
2021/09/04 22:02:48;;;;;;;6.50;5.90;;;20.30;31.90;;;;;;10488414;28;20303;-73
2021/09/04 22:07:51;;;;;;;6.37;5.77;;;20.20;32.40;;;;;;10482351;28;20270;-73
2021/09/04 22:12:55;;;;;;;6.37;5.77;;;20.00;31.90;;;;;;10484612;28;20273;-73
2021/09/04 22:18:00;;;;;;;5.67;5.17;;;19.70;31.90;;;;;;10481223;28;20220;-73
2021/09/04 22:23:04;;;;;;;5.97;5.07;;;19.60;33.00;;;;;;10476676;28;20224;-73
2021/09/04 22:28:07;;;;;;;5.53;5.10;;;19.40;32.60;;;;;;10484199;28;20224;-73
2021/09/04 22:33:12;;;;;;;6.07;5.47;;;19.40;32.80;;;;;;10483611;28;20228;-73
2021/09/04 22:38:15;;;;;;;5.67;5.17;;;19.40;33.40;;;;;;10483076;28;20220;-73
2021/09/04 22:43:21;;;;;;;6.07;5.57;;;19.40;33.00;;;;;;10483068;28;20736;-72
2021/09/04 22:48:27;;;;;;;6.03;5.43;;;19.30;33.60;;;;;;10479188;28;20230;-73
2021/09/04 22:53:31;;;;;;;8.30;6.30;;;19.30;33.60;;;;;;10482024;28;20248;-73
2021/09/04 22:58:34;;;;;;;5.87;5.37;;;19.30;33.00;;;;;;10477286;28;20756;-73
2021/09/04 23:03:38;;;;;;;5.93;5.43;;;19.20;32.90;;;;;;10482962;28;20228;-73
2021/09/04 23:08:42;;;;;;;6.20;5.60;;;19.20;33.40;;;;;;10478776;28;20315;-73
2021/09/04 23:13:47;;;;;;;6.17;5.63;;;19.10;33.00;;;;;;10480000;28;20228;-73
2021/09/04 23:18:52;;;;;;;6.30;5.17;;;18.80;33.00;;;;;;10478997;28;20320;-73
2021/09/04 23:23:55;;;;;;;5.50;5.10;;;18.80;33.60;;;;;;10479134;28;21268;-78
2021/09/04 23:29:00;;;;;;;5.40;4.90;;;18.70;33.30;;;;;;10481009;28;20228;-76
2021/09/04 23:34:08;;;;;;;4.80;4.40;;;18.60;33.40;;;;;;10478509;28;20592;-76
2021/09/04 23:39:11;;;;;;;5.23;4.83;;;18.60;33.70;;;;;;10475783;28;20223;-76
2021/09/04 23:44:14;;;;;;;5.67;4.63;;;18.60;33.60;;;;;;10480262;28;20224;-75
2021/09/04 23:49:19;;;;;;;5.03;4.63;;;18.50;33.60;;;;;;10477362;28;20216;-76
2021/09/04 23:54:22;;;;;;;4.50;4.10;;;18.50;33.90;;;;;;10480449;28;20243;-76
2021/09/04 23:59:25;;;;;;;5.13;4.73;;;18.40;33.40;;;;;;10474037;28;20707;-76
